• Join FlightAware (Why Join?)
  • Login
  • US Flag 
03:37AM EDT


 

Airport Tracker/Info


-or-


 

Live Flight TrackerFlight Track Log ✈ WIG7117 ✈ 06-Jun-2013 ✈ KALB - KSYR

Flight Track Log - Related Links

Times and Time Zones

All times are in EDT time to prevent confusion due to time zone crossing. See the WIG7117 flight status page for this flight to view local times or setup timezone preferences in your user account.

Time Position Orientation Groundspeed Altitude Reporting Facility
EDT Latitude Longitude Course Direction KTS MPH feet Rate Location/Type
10:18PM 42.7403 -73.8111 282° West 72 83 900  Level Boston Center
10:19PM 42.7481 -73.8536 284° West 124 143 2,100 1,200 Climbing Boston Center
10:20PM 42.7558 -73.8992 283° West 127 146 3,500 1,320 Climbing Boston Center
10:21PM 42.7614 -73.9417 280° West 120 138 4,800 1,200 Climbing Boston Center
10:22PM 42.7711 -73.9900 285° West 114 131 6,100 1,140 Climbing Boston Center
10:23PM 42.7811 -74.0356 287° West 118 136 7,300 900 Climbing Boston Center
10:24PM 42.7831 -74.0152 282° West  Level FlightAware Approximate
10:24PM 42.7867 -74.0753 281° West 116 133 8,000  Level Boston Center
10:26PM 42.7964 -74.1350 283° West 136 157 8,000  Level Boston Center
10:27PM 42.8058 -74.1889 283° West 139 160 8,000  Level Boston Center
10:28PM 42.8133 -74.2375 282° West 130 150 8,000  Level Boston Center
10:29PM 42.8189 -74.2800 280° West 131 151 8,000  Level Boston Center
10:30PM 42.8286 -74.3314 284° West 133 153 8,000 -60 Level Boston Center
10:31PM 42.8383 -74.3797 285° West 130 150 7,900 -60 Descending Boston Center
10:31PM 42.8419 -74.4108 279° West 128 147 7,900  Level Boston Center
10:32PM 42.8492 -74.4622 281° West 133 153 7,900  Level Boston Center
10:33PM 42.8589 -74.5106 285° West 132 152 7,900  Level Boston Center
10:34PM 42.8683 -74.5592 285° West 131 151 7,900  Level Boston Center
10:35PM 42.8758 -74.6103 281° West 131 151 7,900  Level Boston Center
10:36PM 42.8831 -74.6589 281° West 133 153 7,900  Level Boston Center
10:37PM 42.8925 -74.7072 285° West 133 153 7,900  Level Boston Center
10:38PM 42.9000 -74.7558 282° West 132 152 7,900  Level Boston Center
10:39PM 42.9092 -74.8100 283° West 135 155 7,900  Level Boston Center
10:40PM 42.9167 -74.8556 283° West 129 148 7,900  Level Boston Center
10:41PM 42.9239 -74.9014 282° West 125 144 7,900  Level Boston Center
10:42PM 42.9314 -74.9469 283° West 125 144 7,900  Level Boston Center
10:43PM 42.9386 -74.9897 283° West 120 138 7,900  Level Boston Center
10:44PM 42.9461 -75.0356 283° West 121 139 7,900  Level Boston Center
10:45PM 42.9533 -75.0811 282° West 121 139 7,900  Level Boston Center
10:46PM 42.9586 -75.1242 280° West 119 137 7,900  Level Boston Center
10:47PM 42.9656 -75.1783 280° West 126 145 7,900  Level Boston Center
10:48PM 42.9728 -75.2239 282° West 129 148 7,900  Level Boston Center
10:49PM 42.9822 -75.2697 286° West 127 146 7,900 60 Level Boston Center
10:50PM 42.9872 -75.3156 278° West 126 145 8,100 -240 Climbing Boston Center
10:51PM 42.9922 -75.3639 278° West 130 150 7,500 -600 Descending Boston Center
10:52PM 42.9931 -75.4181 271° West 141 162 6,900 -660 Descending Boston Center
10:54PM 42.9956 -75.4778 273° West 141 162 6,200 -660 Descending Boston Center
10:54PM 42.9983 -75.5261 275° West 144 166 5,600 -600 Descending Boston Center
10:56PM 43.0031 -75.5889 276° West 149 171 5,000 -300 Descending Boston Center
10:57PM 43.0078 -75.6431 277° West 146 168 5,000  Level Boston Center
10:58PM 43.0144 -75.6972 280° West 142 163 5,000  Level Boston Center
10:59PM 43.0214 -75.7461 281° West 140 161 5,000  Level Boston Center
11:00PM 43.0283 -75.8003 280° West 138 159 5,000  Level Boston Center
11:01PM 43.0369 -75.8547 282° West 143 165 5,000  Level Boston Center
11:02PM 43.0478 -75.9153 284° West 152 175 5,000  Level Boston Center
11:03PM 43.0503 -75.9664 274° West 138 159 5,100  Climbing Boston Center
11:04PM 43.0486 -76.0175 267° West 131 151 5,100 -60 Level Boston Center
11:05PM 43.0475 -76.0572 268° West 131 151 5,000 -120 Descending Boston Center
11:06PM 43.0436 -76.1081 264° West 133 153 4,900 -600 Descending Boston Center
11:07PM 43.0375 -76.1675 262° West 146 168 3,900 -1,140 Descending Boston Center
11:08PM 43.0381 -76.2214 271° West 145 167 2,700 -840 Descending Boston Center
11:09PM 43.0322 -76.2667 260° West 142 163 2,400 -180 Descending Boston Center
11:10PM 43.0431 -76.3156 287° West 157 181 2,400  Level Boston Center
11:11PM 43.0892 -76.3072 North 158 182 2,400  Level Boston Center
11:12PM 43.1033 -76.2625 67° East 123 142 2,500 -300 Climbing Boston Center
11:13PM 43.1047 -76.2228 87° East 101 116 1,800 -600 Descending Boston Center
11:14PM 43.1078 -76.1858 84° East 99 114 1,300 -540 Descending Boston Center